Flight Track Log - Related Links

Times and Time Zones

All times are in EDT time to prevent confusion due to time zone crossing. See the FFT908 flight status page for this flight to view local times or setup timezone preferences in your user account.

Time Position Orientation Groundspeed Altitude Reporting Facility
EDT Latitude Longitude Course Direction KTS MPH feet Rate Location/Type
Tue 14:48:18 41.7667 -87.7833 355° North 153 176 2,200  Level Chicago TRACON
Tue 14:49:05 41.8008 -87.7872 355° North 201 231 3,300 1,761 Climbing Chicago Center
Tue 14:50:07 41.8225 -87.7031 71° East 234 269 5,400 2,544 Climbing Chicago Center
Tue 14:51:10 41.8511 -87.6047 69° East 266 306 8,600 2,832 Climbing Chicago Center
Tue 14:52:12 41.8764 -87.5011 72° East 286 329 11,300 2,516 Climbing Chicago Center
Tue 14:53:14 41.8472 -87.3850 109° East 311 358 13,800 2,081 Climbing Chicago Center
Tue 14:54:16 41.8319 -87.2522 99° East 352 405 15,600 2,032 Climbing Chicago Center
Tue 14:55:18 41.8217 -87.0831 95° East 375 432 18,000 2,129 Climbing Chicago Center
Tue 14:56:20 41.8117 -86.9358 95° East 392 451 20,000 1,452 Climbing Chicago Center
Tue 14:57:22 41.8017 -86.7833 95° East 408 470 21,000 484 Climbing Chicago Center
Tue 14:58:24 41.7903 -86.6233 95° East 418 481 21,000  Level Chicago Center
Tue 14:59:26 41.7775 -86.4706 96° East 415 478 21,000 726 Level Chicago Center
Tue 15:00:28 41.7678 -86.3169 95° East 415 478 22,500 1,548 Climbing Chicago Center
Tue 15:01:30 41.7703 -86.1611 89° East 416 479 24,200 1,694 Climbing Chicago Center
Tue 15:02:32 41.7725 -85.9642 89° East 439 505 26,000 1,597 Climbing Chicago Center
Tue 15:03:34 41.7744 -85.7986 89° East 443 510 27,500 1,403 Climbing Chicago Center
Tue 15:04:36 41.7761 -85.6264 89° East 454 522 28,900 1,258 Climbing Chicago Center
Tue 15:05:38 41.7789 -85.4469 89° East 471 542 30,100 1,403 Climbing Chicago Center
Tue 15:06:40 41.7789 -85.2661 90° East 475 547 31,800 1,440 Climbing Chicago Center
Tue 15:07:43 41.7794 -85.0903 90° East 469 540 33,100 1,296 Climbing Chicago Center
Tue 15:08:45 41.7794 -84.9172 90° East 472 543 34,500 1,258 Climbing Chicago Center
Tue 15:09:47 41.7789 -84.7414 90° East 472 543 35,700 1,210 Climbing Chicago Center
Tue 15:10:49 41.7786 -84.5369 90° East 461 531 37,000 629 Climbing Chicago Center
Tue 15:11:51 41.7753 -84.3656 91° East 460 529 37,000  Level Chicago Center
Tue 15:12:53 41.7633 -84.1939 95° East 462 532 37,000  Level Chicago Center
Tue 15:14:15 41.7417 -83.9450 97° East 468 539 37,000  Level Cleveland Center
Tue 15:15:15 41.7281 -83.7717 96° East 468 539 37,000  Level Cleveland Center
Tue 15:16:15 41.7181 -83.5961 94° East 468 539 37,000  Level Cleveland Center
Tue 15:17:15 41.7058 -83.4258 95° East 468 539 37,000  Level Cleveland Center
Tue 15:18:15 41.6933 -83.2556 96° East 468 539 37,000  Level Cleveland Center
Tue 15:19:15 41.6783 -83.0825 97° East 468 539 37,000  Level Cleveland Center
Tue 15:20:15 41.6653 -82.9125 96° East 468 539 37,000  Level Cleveland Center
Tue 15:21:15 41.6519 -82.7425 96° East 468 539 37,000  Level Cleveland Center
Tue 15:22:15 41.6422 -82.5892 95° East 463 533 37,000  Level Cleveland Center
Tue 15:23:15 41.6283 -82.4194 96° East 463 533 37,000 50 Level Cleveland Center
Tue 15:24:15 41.6125 -82.2300 96° East 463 533 37,100  Climbing Cleveland Center
Tue 15:25:15 41.5981 -82.0603 96° East 463 533 37,000 -50 Descending Cleveland Center
Tue 15:26:15 41.5836 -81.8878 96° East 463 533 37,000  Level Cleveland Center
Tue 15:27:15 41.5686 -81.7183 97° East 463 533 37,000  Level Cleveland Center
Tue 15:28:15 41.5536 -81.5458 97° East 463 533 37,000  Level Cleveland Center
Tue 15:29:15 41.5381 -81.3931 98° East 463 533 37,000  Level Cleveland Center
Tue 15:30:15 41.5119 -81.2264 102° East 463 533 37,000  Level Cleveland Center
Tue 15:31:15 41.4442 -81.0650 119° Southeast 497 572 37,000 50 Level Cleveland Center
Tue 15:32:15 41.3467 -80.9289 134° Southeast 503 579 37,100  Climbing Cleveland Center
Tue 15:33:15 41.2469 -80.7931 134° Southeast 503 579 37,000 -50 Descending Cleveland Center
Tue 15:34:15 41.1408 -80.6464 134° Southeast 503 579 37,000  Level Cleveland Center
Tue 15:35:15 41.0572 -80.5253 132° Southeast 502 578 37,000  Level Cleveland Center
Tue 15:36:15 40.9614 -80.3933 134° Southeast 502 578 37,000 -150 Level Cleveland Center
Tue 15:37:15 40.8692 -80.2619 133° Southeast 496 571 36,700 -500 Descending Cleveland Center
Tue 15:38:15 40.7897 -80.1197 126° Southeast 491 565 36,000 -350 Descending Cleveland Center
Tue 15:39:15 40.7347 -79.9611 115° Southeast 481 554 36,000  Level Cleveland Center
Tue 15:40:15 40.6731 -79.7892 115° Southeast 475 547 36,000  Level Cleveland Center
Tue 15:41:15 40.6156 -79.6314 116° Southeast 470 541 36,000  Level Cleveland Center
Tue 15:42:15 40.5808 -79.4650 105° East 465 535 36,000  Level Cleveland Center
Tue 15:43:15 40.5539 -79.3014 102° East 459 528 36,000 -200 Level Cleveland Center
Tue 15:44:15 40.5228 -79.1381 104° East 459 528 35,600 -700 Descending Cleveland Center
Tue 15:45:15 40.4958 -78.9750 102° East 454 522 34,600 -1,250 Descending Cleveland Center
Tue 15:46:15 40.4664 -78.8175 104° East 448 516 33,100 -1,600 Descending Cleveland Center
Tue 15:47:15 40.4386 -78.6597 103° East 448 516 31,400 -1,650 Descending Cleveland Center
Tue 15:48:15 40.4089 -78.5053 104° East 443 510 29,800 -1,719 Descending Cleveland Center
Tue 15:50:34 40.3408 -78.1267 103° East 458 527 25,700 -1,447 Descending New York Center
Tue 15:51:34 40.3156 -77.9633 101° East 463 533 25,000 -350 Descending New York Center
Tue 15:52:34 40.3003 -77.7986 97° East 453 521 25,000  Level New York Center
Tue 15:53:34 40.2808 -77.6358 99° East 453 521 25,000 -800 Level New York Center
Tue 15:54:34 40.2631 -77.4708 98° East 453 521 23,400 -1,950 Descending New York Center
Tue 15:55:34 40.2447 -77.3142 99° East 448 516 21,100 -2,300 Descending New York Center
Tue 15:56:34 40.2261 -77.1600 99° East 436 502 18,800 -2,000 Descending New York Center
Tue 15:57:34 40.2125 -77.0256 98° East 421 484 17,100 -1,150 Descending New York Center
Tue 15:58:34 40.1994 -76.8775 97° East 416 479 16,500 -1,500 Descending New York Center
Tue 15:59:34 40.1844 -76.7186 97° East 405 466 14,100 -2,100 Descending New York Center
Tue 16:00:34 40.1683 -76.5814 99° East 393 452 12,300 -1,050 Descending New York Center
Tue 16:01:34 40.1564 -76.4417 96° East 383 441 12,000 -150 Descending New York Center
Tue 16:02:34 40.1433 -76.3211 98° East 383 441 12,000  Level New York Center
Tue 16:03:34 40.1275 -76.1706 98° East 378 435 12,000 -500 Level New York Center
Tue 16:04:34 40.1125 -76.0419 99° East 372 428 11,000 -1,000 Descending New York Center
Tue 16:05:34 40.1178 -75.9200 87° East 353 406 10,000 -1,200 Descending New York Center
Tue 16:06:34 40.1306 -75.8206 80° East 320 368 8,600 -1,450 Descending New York Center
Tue 16:07:34 40.1481 -75.6997 79° East 310 357 7,100 -1,450 Descending New York Center
Tue 16:08:34 40.1622 -75.6083 79° East 300 345 5,700 -1,050 Descending New York Center
Tue 16:09:34 40.1772 -75.4953 80° East 289 333 5,000 -350 Descending New York Center
Tue 16:10:34 40.1892 -75.4036 80° East 289 333 5,000 -550 Level New York Center
Tue 16:11:34 40.2081 -75.2933 77° East 284 327 3,900 -1,000 Descending New York Center
Tue 16:12:34 40.2244 -75.1939 78° East 274 315 3,000 -450 Descending New York Center
Tue 16:13:34 40.2383 -75.1022 79° East 269 310 3,000 -100 Level New York Center
Tue 16:14:34 40.2247 -75.0200 102° East 243 280 2,800 -350 Descending New York Center
Tue 16:15:34 40.2144 -74.9514 101° East 225 259 2,300 -650 Descending New York Center
Tue 16:16:34 40.2253 -74.8867 78° East 178 205 1,500 -850 Descending New York Center
Tue 16:17:34 40.2536 -74.8475 47° Northeast 166 191 600 -900 Descending New York Center
Tue 16:19:00 40.2667 -74.8000 78° East  Level FlightAware Approximate
Tue 16:26:00 40.2767 -74.8135 78° East  Level Estimated

Login

Don't have an account? Register now (free) for customized features, flight alerts, and more!